sensor_id;sensor_type;location;lat;lon;timestamp;temperature;humidity
21199;DHT22;10757;51.038;3.712;2022-08-03T00:01:39;22.80;99.90
21199;DHT22;10757;51.038;3.712;2022-08-03T00:04:05;22.80;99.90
21199;DHT22;10757;51.038;3.712;2022-08-03T00:06:32;22.50;99.90
21199;DHT22;10757;51.038;3.712;2022-08-03T00:08:57;22.40;99.90
21199;DHT22;10757;51.038;3.712;2022-08-03T00:11:23;22.30;99.90
21199;DHT22;10757;51.038;3.712;2022-08-03T00:13:49;22.30;99.90
21199;DHT22;10757;51.038;3.712;2022-08-03T00:16:15;22.20;99.90
21199;DHT22;10757;51.038;3.712;2022-08-03T00:18:41;22.10;99.90
21199;DHT22;10757;51.038;3.712;2022-08-03T00:21:06;22.10;99.90
21199;DHT22;10757;51.038;3.712;2022-08-03T00:23:33;22.00;99.90
21199;DHT22;10757;51.038;3.712;2022-08-03T00:25:59;22.10;99.90
21199;DHT22;10757;51.038;3.712;2022-08-03T00:28:25;22.00;99.90
21199;DHT22;10757;51.038;3.712;2022-08-03T00:30:51;22.00;99.90
21199;DHT22;10757;51.038;3.712;2022-08-03T00:33:17;22.10;99.90
21199;DHT22;10757;51.038;3.712;2022-08-03T00:35:43;22.10;99.90
21199;DHT22;10757;51.038;3.712;2022-08-03T00:38:08;21.90;99.90
21199;DHT22;10757;51.038;3.712;2022-08-03T00:40:34;22.00;99.90
21199;DHT22;10757;51.038;3.712;2022-08-03T00:43:02;21.90;99.90
21199;DHT22;10757;51.038;3.712;2022-08-03T00:45:37;21.90;99.90
21199;DHT22;10757;51.038;3.712;2022-08-03T00:48:04;21.90;99.90
21199;DHT22;10757;51.038;3.712;2022-08-03T00:50:33;21.80;99.90
21199;DHT22;10757;51.038;3.712;2022-08-03T00:53:01;21.70;99.90
21199;DHT22;10757;51.038;3.712;2022-08-03T00:55:28;21.80;99.90
21199;DHT22;10757;51.038;3.712;2022-08-03T00:57:54;21.90;99.90
21199;DHT22;10757;51.038;3.712;2022-08-03T01:00:23;21.80;99.90
21199;DHT22;10757;51.038;3.712;2022-08-03T01:02:50;21.90;99.90
21199;DHT22;10757;51.038;3.712;2022-08-03T01:05:16;21.80;99.90
21199;DHT22;10757;51.038;3.712;2022-08-03T01:18:40;21.80;99.90
21199;DHT22;10757;51.038;3.712;2022-08-03T01:21:13;21.60;99.90
21199;DHT22;10757;51.038;3.712;2022-08-03T01:23:58;21.50;99.90
21199;DHT22;10757;51.038;3.712;2022-08-03T01:29:56;21.60;99.90
21199;DHT22;10757;51.038;3.712;2022-08-03T01:32:53;21.60;99.90
21199;DHT22;10757;51.038;3.712;2022-08-03T01:35:25;21.60;99.90
21199;DHT22;10757;51.038;3.712;2022-08-03T01:38:25;21.60;99.90
21199;DHT22;10757;51.038;3.712;2022-08-03T01:40:43;21.50;99.90
21199;DHT22;10757;51.038;3.712;2022-08-03T01:43:16;21.30;99.90
21199;DHT22;10757;51.038;3.712;2022-08-03T01:45:42;21.30;99.90
21199;DHT22;10757;51.038;3.712;2022-08-03T01:48:11;21.40;99.90
21199;DHT22;10757;51.038;3.712;2022-08-03T01:50:37;21.40;99.90
21199;DHT22;10757;51.038;3.712;2022-08-03T01:53:08;21.20;99.90
21199;DHT22;10757;51.038;3.712;2022-08-03T01:55:36;21.10;99.90
21199;DHT22;10757;51.038;3.712;2022-08-03T01:58:04;21.10;99.90
21199;DHT22;10757;51.038;3.712;2022-08-03T02:00:31;21.10;99.90
21199;DHT22;10757;51.038;3.712;2022-08-03T02:02:57;21.10;99.90
21199;DHT22;10757;51.038;3.712;2022-08-03T02:05:23;21.00;99.90
21199;DHT22;10757;51.038;3.712;2022-08-03T02:07:51;21.10;99.90
21199;DHT22;10757;51.038;3.712;2022-08-03T02:10:19;21.00;99.90
21199;DHT22;10757;51.038;3.712;2022-08-03T02:12:46;21.40;99.90
21199;DHT22;10757;51.038;3.712;2022-08-03T02:15:17;21.40;99.90
21199;DHT22;10757;51.038;3.712;2022-08-03T02:17:47;21.30;99.90
21199;DHT22;10757;51.038;3.712;2022-08-03T02:20:13;21.40;99.90
21199;DHT22;10757;51.038;3.712;2022-08-03T02:22:41;21.20;99.90
21199;DHT22;10757;51.038;3.712;2022-08-03T02:25:08;21.10;99.90
21199;DHT22;10757;51.038;3.712;2022-08-03T02:27:37;21.00;99.90
21199;DHT22;10757;51.038;3.712;2022-08-03T02:30:08;20.90;99.90
21199;DHT22;10757;51.038;3.712;2022-08-03T02:32:36;20.90;99.90
21199;DHT22;10757;51.038;3.712;2022-08-03T02:35:05;21.10;99.90
21199;DHT22;10757;51.038;3.712;2022-08-03T02:37:37;21.10;99.90
21199;DHT22;10757;51.038;3.712;2022-08-03T02:40:07;21.00;99.90
21199;DHT22;10757;51.038;3.712;2022-08-03T02:42:35;20.90;99.90
21199;DHT22;10757;51.038;3.712;2022-08-03T02:45:05;20.90;99.90
21199;DHT22;10757;51.038;3.712;2022-08-03T02:47:34;20.90;99.90
21199;DHT22;10757;51.038;3.712;2022-08-03T02:50:01;20.90;99.90
21199;DHT22;10757;51.038;3.712;2022-08-03T02:52:29;21.10;99.90
21199;DHT22;10757;51.038;3.712;2022-08-03T02:55:00;21.00;99.90
21199;DHT22;10757;51.038;3.712;2022-08-03T02:57:27;21.00;99.90
21199;DHT22;10757;51.038;3.712;2022-08-03T02:59:55;21.00;99.90
21199;DHT22;10757;51.038;3.712;2022-08-03T03:02:23;20.90;99.90
21199;DHT22;10757;51.038;3.712;2022-08-03T03:04:50;20.90;99.90
21199;DHT22;10757;51.038;3.712;2022-08-03T03:07:17;21.10;99.90
21199;DHT22;10757;51.038;3.712;2022-08-03T03:09:43;21.00;99.90
21199;DHT22;10757;51.038;3.712;2022-08-03T03:12:11;21.10;99.90
21199;DHT22;10757;51.038;3.712;2022-08-03T03:14:37;21.20;99.90
21199;DHT22;10757;51.038;3.712;2022-08-03T03:17:04;20.90;99.90
21199;DHT22;10757;51.038;3.712;2022-08-03T03:19:32;20.80;99.90
21199;DHT22;10757;51.038;3.712;2022-08-03T03:22:00;20.70;99.90
21199;DHT22;10757;51.038;3.712;2022-08-03T03:24:29;20.70;99.90
21199;DHT22;10757;51.038;3.712;2022-08-03T03:26:59;20.70;99.90
21199;DHT22;10757;51.038;3.712;2022-08-03T03:29:25;20.70;99.90
21199;DHT22;10757;51.038;3.712;2022-08-03T03:31:51;20.80;99.90
21199;DHT22;10757;51.038;3.712;2022-08-03T03:34:18;20.90;99.90
21199;DHT22;10757;51.038;3.712;2022-08-03T03:36:44;20.80;99.90
21199;DHT22;10757;51.038;3.712;2022-08-03T03:39:11;20.80;99.90
21199;DHT22;10757;51.038;3.712;2022-08-03T03:41:38;20.80;99.90
21199;DHT22;10757;51.038;3.712;2022-08-03T03:44:04;20.70;99.90
21199;DHT22;10757;51.038;3.712;2022-08-03T03:46:30;20.50;99.90
21199;DHT22;10757;51.038;3.712;2022-08-03T03:48:56;20.60;99.90
21199;DHT22;10757;51.038;3.712;2022-08-03T03:51:22;20.50;99.90
21199;DHT22;10757;51.038;3.712;2022-08-03T03:53:58;20.60;99.90
21199;DHT22;10757;51.038;3.712;2022-08-03T03:56:25;20.60;99.90
21199;DHT22;10757;51.038;3.712;2022-08-03T03:58:51;20.70;99.90
21199;DHT22;10757;51.038;3.712;2022-08-03T04:01:17;20.70;99.90
21199;DHT22;10757;51.038;3.712;2022-08-03T04:03:43;20.70;99.90
21199;DHT22;10757;51.038;3.712;2022-08-03T04:06:09;20.50;99.90
21199;DHT22;10757;51.038;3.712;2022-08-03T04:08:54;20.50;99.90
21199;DHT22;10757;51.038;3.712;2022-08-03T04:11:51;20.50;99.90
21199;DHT22;10757;51.038;3.712;2022-08-03T04:14:36;20.60;99.90
21199;DHT22;10757;51.038;3.712;2022-08-03T04:17:05;20.50;99.90
21199;DHT22;10757;51.038;3.712;2022-08-03T04:19:45;20.50;99.90
21199;DHT22;10757;51.038;3.712;2022-08-03T04:22:16;20.40;99.90
21199;DHT22;10757;51.038;3.712;2022-08-03T04:24:48;20.40;99.90
21199;DHT22;10757;51.038;3.712;2022-08-03T04:27:19;20.50;99.90
21199;DHT22;10757;51.038;3.712;2022-08-03T04:29:48;20.70;99.90
21199;DHT22;10757;51.038;3.712;2022-08-03T04:32:16;21.00;99.90
21199;DHT22;10757;51.038;3.712;2022-08-03T04:34:42;20.90;99.90
21199;DHT22;10757;51.038;3.712;2022-08-03T04:37:12;20.80;99.90
21199;DHT22;10757;51.038;3.712;2022-08-03T04:39:41;20.70;99.90
21199;DHT22;10757;51.038;3.712;2022-08-03T04:42:09;20.60;99.90
21199;DHT22;10757;51.038;3.712;2022-08-03T04:44:38;20.60;99.90
21199;DHT22;10757;51.038;3.712;2022-08-03T04:47:05;20.50;99.90
21199;DHT22;10757;51.038;3.712;2022-08-03T04:49:31;20.50;99.90
21199;DHT22;10757;51.038;3.712;2022-08-03T04:51:57;20.50;99.90
21199;DHT22;10757;51.038;3.712;2022-08-03T04:54:23;20.70;99.90
21199;DHT22;10757;51.038;3.712;2022-08-03T04:56:49;20.90;99.90
21199;DHT22;10757;51.038;3.712;2022-08-03T04:59:15;21.20;99.90
21199;DHT22;10757;51.038;3.712;2022-08-03T05:01:42;21.60;99.90
21199;DHT22;10757;51.038;3.712;2022-08-03T05:04:08;21.90;99.90
21199;DHT22;10757;51.038;3.712;2022-08-03T05:06:33;22.10;99.90
21199;DHT22;10757;51.038;3.712;2022-08-03T05:08:59;22.20;99.90
21199;DHT22;10757;51.038;3.712;2022-08-03T05:11:26;22.30;99.90
21199;DHT22;10757;51.038;3.712;2022-08-03T05:13:52;22.60;99.90
21199;DHT22;10757;51.038;3.712;2022-08-03T05:16:18;23.00;99.90
21199;DHT22;10757;51.038;3.712;2022-08-03T05:18:44;23.20;99.90
21199;DHT22;10757;51.038;3.712;2022-08-03T05:21:10;23.30;99.90
21199;DHT22;10757;51.038;3.712;2022-08-03T05:23:38;23.30;99.90
21199;DHT22;10757;51.038;3.712;2022-08-03T05:26:04;23.40;99.90
21199;DHT22;10757;51.038;3.712;2022-08-03T05:28:30;24.00;99.90
21199;DHT22;10757;51.038;3.712;2022-08-03T05:30:56;24.10;99.90
21199;DHT22;10757;51.038;3.712;2022-08-03T05:33:25;24.30;99.90
21199;DHT22;10757;51.038;3.712;2022-08-03T05:35:54;24.70;99.90
21199;DHT22;10757;51.038;3.712;2022-08-03T05:38:19;24.60;99.90
21199;DHT22;10757;51.038;3.712;2022-08-03T05:40:45;24.70;99.90
21199;DHT22;10757;51.038;3.712;2022-08-03T05:43:11;24.90;99.90
21199;DHT22;10757;51.038;3.712;2022-08-03T05:45:36;24.50;99.90
21199;DHT22;10757;51.038;3.712;2022-08-03T05:48:04;25.00;99.90
21199;DHT22;10757;51.038;3.712;2022-08-03T05:50:29;25.30;99.90
21199;DHT22;10757;51.038;3.712;2022-08-03T05:52:55;25.40;99.90
21199;DHT22;10757;51.038;3.712;2022-08-03T05:55:24;25.50;99.90
21199;DHT22;10757;51.038;3.712;2022-08-03T05:57:50;25.60;99.90
21199;DHT22;10757;51.038;3.712;2022-08-03T06:00:17;26.00;99.90
21199;DHT22;10757;51.038;3.712;2022-08-03T06:02:43;26.00;99.90
21199;DHT22;10757;51.038;3.712;2022-08-03T06:05:09;25.70;99.90
21199;DHT22;10757;51.038;3.712;2022-08-03T06:07:35;25.20;99.90
21199;DHT22;10757;51.038;3.712;2022-08-03T06:10:02;24.70;99.90
21199;DHT22;10757;51.038;3.712;2022-08-03T06:12:29;24.50;99.90
21199;DHT22;10757;51.038;3.712;2022-08-03T06:14:55;24.20;99.90
21199;DHT22;10757;51.038;3.712;2022-08-03T06:17:20;23.70;99.90
21199;DHT22;10757;51.038;3.712;2022-08-03T06:19:46;23.60;99.90
21199;DHT22;10757;51.038;3.712;2022-08-03T06:22:12;23.40;99.90
21199;DHT22;10757;51.038;3.712;2022-08-03T06:24:38;23.30;99.90
21199;DHT22;10757;51.038;3.712;2022-08-03T06:27:03;23.30;99.90
21199;DHT22;10757;51.038;3.712;2022-08-03T06:29:29;23.40;99.90
21199;DHT22;10757;51.038;3.712;2022-08-03T06:31:55;23.40;99.90
21199;DHT22;10757;51.038;3.712;2022-08-03T06:34:21;23.30;99.90
21199;DHT22;10757;51.038;3.712;2022-08-03T06:36:47;23.20;99.90
21199;DHT22;10757;51.038;3.712;2022-08-03T06:39:14;23.30;99.90
21199;DHT22;10757;51.038;3.712;2022-08-03T06:41:40;23.50;99.90
21199;DHT22;10757;51.038;3.712;2022-08-03T06:44:05;23.70;99.90
21199;DHT22;10757;51.038;3.712;2022-08-03T06:46:31;23.70;99.90
21199;DHT22;10757;51.038;3.712;2022-08-03T06:48:56;23.60;99.90
21199;DHT22;10757;51.038;3.712;2022-08-03T06:51:22;23.60;99.90
21199;DHT22;10757;51.038;3.712;2022-08-03T06:53:48;23.60;99.90
21199;DHT22;10757;51.038;3.712;2022-08-03T06:56:15;23.60;99.90
21199;DHT22;10757;51.038;3.712;2022-08-03T06:58:41;23.60;99.90
21199;DHT22;10757;51.038;3.712;2022-08-03T07:01:06;23.80;99.90
21199;DHT22;10757;51.038;3.712;2022-08-03T07:03:32;23.70;99.90
21199;DHT22;10757;51.038;3.712;2022-08-03T07:05:58;23.70;99.90
21199;DHT22;10757;51.038;3.712;2022-08-03T07:08:23;23.70;99.90
21199;DHT22;10757;51.038;3.712;2022-08-03T07:10:49;23.90;99.90
21199;DHT22;10757;51.038;3.712;2022-08-03T07:13:15;23.90;99.90
21199;DHT22;10757;51.038;3.712;2022-08-03T07:15:41;24.10;99.90
21199;DHT22;10757;51.038;3.712;2022-08-03T07:18:06;24.10;99.90
21199;DHT22;10757;51.038;3.712;2022-08-03T07:20:32;24.10;99.90
21199;DHT22;10757;51.038;3.712;2022-08-03T07:22:58;24.10;99.90
21199;DHT22;10757;51.038;3.712;2022-08-03T07:25:25;24.10;99.90
21199;DHT22;10757;51.038;3.712;2022-08-03T07:27:51;24.30;99.90
21199;DHT22;10757;51.038;3.712;2022-08-03T07:30:17;24.30;99.90
21199;DHT22;10757;51.038;3.712;2022-08-03T07:32:44;24.50;99.90
21199;DHT22;10757;51.038;3.712;2022-08-03T07:35:10;24.40;99.90
21199;DHT22;10757;51.038;3.712;2022-08-03T07:37:36;24.50;99.90
21199;DHT22;10757;51.038;3.712;2022-08-03T07:40:04;24.60;99.90
21199;DHT22;10757;51.038;3.712;2022-08-03T07:42:30;24.50;99.90
21199;DHT22;10757;51.038;3.712;2022-08-03T07:44:57;24.60;99.90
21199;DHT22;10757;51.038;3.712;2022-08-03T07:47:26;24.80;99.90
21199;DHT22;10757;51.038;3.712;2022-08-03T07:49:53;24.70;99.90
21199;DHT22;10757;51.038;3.712;2022-08-03T07:52:19;24.80;99.90
21199;DHT22;10757;51.038;3.712;2022-08-03T07:55:05;25.20;99.90
21199;DHT22;10757;51.038;3.712;2022-08-03T07:57:31;25.10;99.90
21199;DHT22;10757;51.038;3.712;2022-08-03T07:59:57;25.20;99.90
21199;DHT22;10757;51.038;3.712;2022-08-03T08:02:23;25.30;99.90
21199;DHT22;10757;51.038;3.712;2022-08-03T08:04:49;25.50;99.90
21199;DHT22;10757;51.038;3.712;2022-08-03T08:07:15;25.40;99.90
21199;DHT22;10757;51.038;3.712;2022-08-03T08:09:41;25.70;99.90
21199;DHT22;10757;51.038;3.712;2022-08-03T08:12:07;25.90;99.90
21199;DHT22;10757;51.038;3.712;2022-08-03T08:14:37;26.00;99.90
21199;DHT22;10757;51.038;3.712;2022-08-03T08:17:03;25.80;99.90
21199;DHT22;10757;51.038;3.712;2022-08-03T08:19:28;25.80;99.90
21199;DHT22;10757;51.038;3.712;2022-08-03T08:21:54;25.70;99.90
21199;DHT22;10757;51.038;3.712;2022-08-03T08:24:20;25.60;99.90
21199;DHT22;10757;51.038;3.712;2022-08-03T08:26:45;25.70;99.90
21199;DHT22;10757;51.038;3.712;2022-08-03T08:29:11;25.70;99.90
21199;DHT22;10757;51.038;3.712;2022-08-03T08:31:38;25.80;99.90
21199;DHT22;10757;51.038;3.712;2022-08-03T08:34:04;26.10;99.90
21199;DHT22;10757;51.038;3.712;2022-08-03T08:36:35;26.10;99.90
21199;DHT22;10757;51.038;3.712;2022-08-03T08:39:01;26.20;99.90
21199;DHT22;10757;51.038;3.712;2022-08-03T08:41:28;26.30;99.90
21199;DHT22;10757;51.038;3.712;2022-08-03T08:43:58;26.50;99.90
21199;DHT22;10757;51.038;3.712;2022-08-03T08:46:23;26.90;99.90
21199;DHT22;10757;51.038;3.712;2022-08-03T08:48:51;27.00;99.90
21199;DHT22;10757;51.038;3.712;2022-08-03T08:51:19;26.70;99.90
21199;DHT22;10757;51.038;3.712;2022-08-03T08:53:48;26.80;99.90
21199;DHT22;10757;51.038;3.712;2022-08-03T08:56:16;26.80;99.90
21199;DHT22;10757;51.038;3.712;2022-08-03T08:58:53;27.10;99.90
21199;DHT22;10757;51.038;3.712;2022-08-03T09:01:21;27.30;99.90
21199;DHT22;10757;51.038;3.712;2022-08-03T09:03:48;27.20;99.90
21199;DHT22;10757;51.038;3.712;2022-08-03T09:06:13;27.10;99.90
21199;DHT22;10757;51.038;3.712;2022-08-03T09:08:39;27.10;99.90
21199;DHT22;10757;51.038;3.712;2022-08-03T09:11:05;27.20;99.90
21199;DHT22;10757;51.038;3.712;2022-08-03T09:13:33;27.30;99.90
21199;DHT22;10757;51.038;3.712;2022-08-03T09:16:17;27.50;99.90
21199;DHT22;10757;51.038;3.712;2022-08-03T09:18:48;27.60;99.90
21199;DHT22;10757;51.038;3.712;2022-08-03T09:21:15;27.70;99.90
21199;DHT22;10757;51.038;3.712;2022-08-03T09:23:49;28.00;99.90
21199;DHT22;10757;51.038;3.712;2022-08-03T09:26:22;28.20;99.90
21199;DHT22;10757;51.038;3.712;2022-08-03T09:31:40;28.50;99.90
21199;DHT22;10757;51.038;3.712;2022-08-03T09:34:08;28.40;99.90
21199;DHT22;10757;51.038;3.712;2022-08-03T09:36:49;28.40;99.90
21199;DHT22;10757;51.038;3.712;2022-08-03T09:39:20;28.50;99.90
21199;DHT22;10757;51.038;3.712;2022-08-03T09:42:07;28.60;99.90
21199;DHT22;10757;51.038;3.712;2022-08-03T09:44:35;28.80;99.90
21199;DHT22;10757;51.038;3.712;2022-08-03T09:47:01;29.00;99.90
21199;DHT22;10757;51.038;3.712;2022-08-03T09:49:30;29.00;99.90
21199;DHT22;10757;51.038;3.712;2022-08-03T09:51:56;28.90;99.90
21199;DHT22;10757;51.038;3.712;2022-08-03T09:54:30;28.90;99.90
21199;DHT22;10757;51.038;3.712;2022-08-03T09:56:56;28.70;99.90
21199;DHT22;10757;51.038;3.712;2022-08-03T09:59:28;28.70;99.90
21199;DHT22;10757;51.038;3.712;2022-08-03T10:01:55;28.70;99.90
21199;DHT22;10757;51.038;3.712;2022-08-03T10:04:25;29.00;99.90
21199;DHT22;10757;51.038;3.712;2022-08-03T10:07:07;29.20;99.90
21199;DHT22;10757;51.038;3.712;2022-08-03T10:09:34;29.60;99.90
21199;DHT22;10757;51.038;3.712;2022-08-03T10:12:11;30.00;99.90
21199;DHT22;10757;51.038;3.712;2022-08-03T10:14:38;30.00;99.90
21199;DHT22;10757;51.038;3.712;2022-08-03T10:17:06;30.20;99.90
21199;DHT22;10757;51.038;3.712;2022-08-03T10:19:32;30.30;99.90
21199;DHT22;10757;51.038;3.712;2022-08-03T10:24:54;30.00;99.90
21199;DHT22;10757;51.038;3.712;2022-08-03T10:27:22;30.00;99.90
21199;DHT22;10757;51.038;3.712;2022-08-03T10:29:54;30.10;99.90
21199;DHT22;10757;51.038;3.712;2022-08-03T10:32:40;30.10;99.90
21199;DHT22;10757;51.038;3.712;2022-08-03T10:35:11;30.40;99.90
21199;DHT22;10757;51.038;3.712;2022-08-03T10:37:41;30.60;99.90
21199;DHT22;10757;51.038;3.712;2022-08-03T10:40:11;30.50;99.90
21199;DHT22;10757;51.038;3.712;2022-08-03T10:42:40;30.50;99.90
21199;DHT22;10757;51.038;3.712;2022-08-03T10:45:14;30.30;99.90
21199;DHT22;10757;51.038;3.712;2022-08-03T10:47:45;30.30;99.90
21199;DHT22;10757;51.038;3.712;2022-08-03T10:50:13;30.60;99.90
21199;DHT22;10757;51.038;3.712;2022-08-03T10:52:57;30.60;99.90
21199;DHT22;10757;51.038;3.712;2022-08-03T10:55:38;30.70;99.90
21199;DHT22;10757;51.038;3.712;2022-08-03T11:01:11;31.00;99.90
21199;DHT22;10757;51.038;3.712;2022-08-03T11:06:26;31.20;99.90
21199;DHT22;10757;51.038;3.712;2022-08-03T11:09:14;31.30;99.90
21199;DHT22;10757;51.038;3.712;2022-08-03T11:11:42;31.50;99.90
21199;DHT22;10757;51.038;3.712;2022-08-03T11:14:11;31.50;99.90
21199;DHT22;10757;51.038;3.712;2022-08-03T11:19:09;31.60;99.90
21199;DHT22;10757;51.038;3.712;2022-08-03T11:33:01;32.00;99.90
21199;DHT22;10757;51.038;3.712;2022-08-03T11:35:32;32.30;99.90
21199;DHT22;10757;51.038;3.712;2022-08-03T11:40:55;32.50;99.90
21199;DHT22;10757;51.038;3.712;2022-08-03T11:48:37;32.70;99.60
21199;DHT22;10757;51.038;3.712;2022-08-03T11:51:04;32.50;99.60
21199;DHT22;10757;51.038;3.712;2022-08-03T11:53:30;32.60;99.50
21199;DHT22;10757;51.038;3.712;2022-08-03T11:56:02;32.80;99.20
21199;DHT22;10757;51.038;3.712;2022-08-03T11:58:28;32.50;99.40
21199;DHT22;10757;51.038;3.712;2022-08-03T12:01:05;32.60;98.90
21199;DHT22;10757;51.038;3.712;2022-08-03T12:03:33;32.70;98.70
21199;DHT22;10757;51.038;3.712;2022-08-03T12:05:59;32.60;99.00
21199;DHT22;10757;51.038;3.712;2022-08-03T12:08:33;32.80;98.60
21199;DHT22;10757;51.038;3.712;2022-08-03T12:11:01;33.00;98.00
21199;DHT22;10757;51.038;3.712;2022-08-03T12:13:46;33.10;97.70
21199;DHT22;10757;51.038;3.712;2022-08-03T12:16:18;33.20;97.30
21199;DHT22;10757;51.038;3.712;2022-08-03T12:18:45;33.10;97.30
21199;DHT22;10757;51.038;3.712;2022-08-03T12:21:11;32.70;97.60
21199;DHT22;10757;51.038;3.712;2022-08-03T12:23:37;32.90;97.50
21199;DHT22;10757;51.038;3.712;2022-08-03T12:26:05;32.80;97.40
21199;DHT22;10757;51.038;3.712;2022-08-03T12:28:32;33.10;97.50
21199;DHT22;10757;51.038;3.712;2022-08-03T12:31:05;33.40;96.70
21199;DHT22;10757;51.038;3.712;2022-08-03T12:33:48;33.30;97.00
21199;DHT22;10757;51.038;3.712;2022-08-03T12:36:18;33.40;96.50
21199;DHT22;10757;51.038;3.712;2022-08-03T12:39:11;33.10;96.70
21199;DHT22;10757;51.038;3.712;2022-08-03T12:41:38;33.00;97.00
21199;DHT22;10757;51.038;3.712;2022-08-03T12:44:07;33.10;96.80
21199;DHT22;10757;51.038;3.712;2022-08-03T12:46:35;33.20;96.30
21199;DHT22;10757;51.038;3.712;2022-08-03T12:51:54;33.00;96.60
21199;DHT22;10757;51.038;3.712;2022-08-03T12:54:23;33.10;96.30
21199;DHT22;10757;51.038;3.712;2022-08-03T12:57:18;33.30;96.10
21199;DHT22;10757;51.038;3.712;2022-08-03T12:59:45;33.30;95.60
21199;DHT22;10757;51.038;3.712;2022-08-03T13:02:20;33.00;95.90
21199;DHT22;10757;51.038;3.712;2022-08-03T13:04:48;32.60;96.40
21199;DHT22;10757;51.038;3.712;2022-08-03T13:07:15;32.30;96.70
21199;DHT22;10757;51.038;3.712;2022-08-03T13:09:49;32.40;96.80
21199;DHT22;10757;51.038;3.712;2022-08-03T13:12:19;32.50;96.60
21199;DHT22;10757;51.038;3.712;2022-08-03T13:14:59;32.50;96.50
21199;DHT22;10757;51.038;3.712;2022-08-03T13:17:28;32.50;96.80
21199;DHT22;10757;51.038;3.712;2022-08-03T13:19:55;32.60;96.80
21199;DHT22;10757;51.038;3.712;2022-08-03T13:22:25;32.90;96.20
21199;DHT22;10757;51.038;3.712;2022-08-03T13:24:54;33.10;96.00
21199;DHT22;10757;51.038;3.712;2022-08-03T13:27:22;32.80;96.30
21199;DHT22;10757;51.038;3.712;2022-08-03T13:29:49;33.00;96.10
21199;DHT22;10757;51.038;3.712;2022-08-03T13:32:15;33.30;95.70
21199;DHT22;10757;51.038;3.712;2022-08-03T13:34:41;33.30;95.40
21199;DHT22;10757;51.038;3.712;2022-08-03T13:37:13;33.50;95.00
21199;DHT22;10757;51.038;3.712;2022-08-03T13:39:40;33.60;94.90
21199;DHT22;10757;51.038;3.712;2022-08-03T13:42:08;33.60;94.80
21199;DHT22;10757;51.038;3.712;2022-08-03T13:44:35;33.50;94.90
21199;DHT22;10757;51.038;3.712;2022-08-03T13:47:05;33.50;94.70
21199;DHT22;10757;51.038;3.712;2022-08-03T13:49:31;33.40;94.80
21199;DHT22;10757;51.038;3.712;2022-08-03T13:52:03;33.50;94.60
21199;DHT22;10757;51.038;3.712;2022-08-03T13:54:30;33.70;94.70
21199;DHT22;10757;51.038;3.712;2022-08-03T13:57:02;33.70;94.30
21199;DHT22;10757;51.038;3.712;2022-08-03T13:59:28;33.70;94.40
21199;DHT22;10757;51.038;3.712;2022-08-03T14:01:58;33.90;93.50
21199;DHT22;10757;51.038;3.712;2022-08-03T14:04:24;33.90;93.30
21199;DHT22;10757;51.038;3.712;2022-08-03T14:06:49;34.20;92.90
21199;DHT22;10757;51.038;3.712;2022-08-03T14:09:15;34.30;93.00
21199;DHT22;10757;51.038;3.712;2022-08-03T14:11:41;34.30;92.80
21199;DHT22;10757;51.038;3.712;2022-08-03T14:14:08;34.20;92.80
21199;DHT22;10757;51.038;3.712;2022-08-03T14:16:35;34.20;92.80
21199;DHT22;10757;51.038;3.712;2022-08-03T14:19:02;34.30;92.60
21199;DHT22;10757;51.038;3.712;2022-08-03T14:21:28;34.30;92.30
21199;DHT22;10757;51.038;3.712;2022-08-03T14:23:53;34.30;92.30
21199;DHT22;10757;51.038;3.712;2022-08-03T14:26:30;34.10;92.20
21199;DHT22;10757;51.038;3.712;2022-08-03T14:28:56;33.80;92.40
21199;DHT22;10757;51.038;3.712;2022-08-03T14:31:22;33.80;92.40
21199;DHT22;10757;51.038;3.712;2022-08-03T14:33:48;33.70;92.50
21199;DHT22;10757;51.038;3.712;2022-08-03T14:36:14;33.70;92.50
21199;DHT22;10757;51.038;3.712;2022-08-03T14:38:40;33.40;93.00
21199;DHT22;10757;51.038;3.712;2022-08-03T14:41:05;33.50;93.10
21199;DHT22;10757;51.038;3.712;2022-08-03T14:43:31;33.80;92.90
21199;DHT22;10757;51.038;3.712;2022-08-03T14:45:57;33.70;92.70
21199;DHT22;10757;51.038;3.712;2022-08-03T14:48:23;33.80;91.90
21199;DHT22;10757;51.038;3.712;2022-08-03T14:50:49;33.90;91.90
21199;DHT22;10757;51.038;3.712;2022-08-03T14:53:16;34.10;91.70
21199;DHT22;10757;51.038;3.712;2022-08-03T14:55:43;34.20;91.80
21199;DHT22;10757;51.038;3.712;2022-08-03T14:58:08;34.00;91.70
21199;DHT22;10757;51.038;3.712;2022-08-03T15:00:35;34.00;91.70
21199;DHT22;10757;51.038;3.712;2022-08-03T15:03:02;33.60;91.70
21199;DHT22;10757;51.038;3.712;2022-08-03T15:05:28;33.50;92.00
21199;DHT22;10757;51.038;3.712;2022-08-03T15:07:53;33.70;91.60
21199;DHT22;10757;51.038;3.712;2022-08-03T15:10:19;34.00;91.20
21199;DHT22;10757;51.038;3.712;2022-08-03T15:12:45;34.00;91.00
21199;DHT22;10757;51.038;3.712;2022-08-03T15:15:11;34.00;91.10
21199;DHT22;10757;51.038;3.712;2022-08-03T15:17:36;34.10;90.70
21199;DHT22;10757;51.038;3.712;2022-08-03T15:20:03;34.10;90.50
21199;DHT22;10757;51.038;3.712;2022-08-03T15:22:29;34.30;90.00
21199;DHT22;10757;51.038;3.712;2022-08-03T15:24:55;34.60;88.60
21199;DHT22;10757;51.038;3.712;2022-08-03T15:27:21;34.40;89.20
21199;DHT22;10757;51.038;3.712;2022-08-03T15:29:47;34.50;89.10
21199;DHT22;10757;51.038;3.712;2022-08-03T15:32:13;34.70;88.00
21199;DHT22;10757;51.038;3.712;2022-08-03T15:34:39;34.60;87.60
21199;DHT22;10757;51.038;3.712;2022-08-03T15:37:05;34.30;88.00
21199;DHT22;10757;51.038;3.712;2022-08-03T15:39:31;34.20;88.30
21199;DHT22;10757;51.038;3.712;2022-08-03T15:41:57;34.00;88.70
21199;DHT22;10757;51.038;3.712;2022-08-03T15:44:22;33.80;89.10
21199;DHT22;10757;51.038;3.712;2022-08-03T15:46:48;33.90;88.70
21199;DHT22;10757;51.038;3.712;2022-08-03T15:49:16;34.20;88.20
21199;DHT22;10757;51.038;3.712;2022-08-03T15:51:42;34.20;87.70
21199;DHT22;10757;51.038;3.712;2022-08-03T15:54:08;34.20;87.30
21199;DHT22;10757;51.038;3.712;2022-08-03T15:56:34;34.20;87.20
21199;DHT22;10757;51.038;3.712;2022-08-03T15:58:59;34.30;86.90
21199;DHT22;10757;51.038;3.712;2022-08-03T16:01:25;34.30;87.00
21199;DHT22;10757;51.038;3.712;2022-08-03T16:03:51;34.40;87.30
21199;DHT22;10757;51.038;3.712;2022-08-03T16:06:17;34.60;86.00
21199;DHT22;10757;51.038;3.712;2022-08-03T16:08:42;34.60;86.20
21199;DHT22;10757;51.038;3.712;2022-08-03T16:11:09;34.90;85.00
21199;DHT22;10757;51.038;3.712;2022-08-03T16:13:35;35.00;84.20
21199;DHT22;10757;51.038;3.712;2022-08-03T16:16:01;35.20;83.00
21199;DHT22;10757;51.038;3.712;2022-08-03T16:18:30;35.20;82.80
21199;DHT22;10757;51.038;3.712;2022-08-03T16:20:57;35.00;83.30
21199;DHT22;10757;51.038;3.712;2022-08-03T16:23:23;34.70;83.70
21199;DHT22;10757;51.038;3.712;2022-08-03T16:25:49;34.60;83.40
21199;DHT22;10757;51.038;3.712;2022-08-03T16:28:15;34.50;83.40